sensor_id;sensor_type;location;lat;lon;timestamp;pressure;altitude;pressure_sealevel;temperature;humidity
67987;BME280;54767;53.800;15.956;2023-05-12T00:00:07;100786.03;;;10.32;47.61
67987;BME280;54767;53.800;15.956;2023-05-12T00:02:58;100785.66;;;10.30;47.58
67987;BME280;54767;53.800;15.956;2023-05-12T00:05:36;100783.88;;;10.28;47.79
67987;BME280;54767;53.800;15.956;2023-05-12T00:08:04;100786.46;;;10.25;47.74
67987;BME280;54767;53.800;15.956;2023-05-12T00:10:33;100782.59;;;10.24;47.85
67987;BME280;54767;53.800;15.956;2023-05-12T00:13:09;100785.02;;;10.22;47.95
67987;BME280;54767;53.800;15.956;2023-05-12T00:15:38;100779.41;;;10.21;48.07
67987;BME280;54767;53.800;15.956;2023-05-12T00:18:06;100778.69;;;10.19;48.15
67987;BME280;54767;53.800;15.956;2023-05-12T00:20:34;100778.33;;;10.17;48.12
67987;BME280;54767;53.800;15.956;2023-05-12T00:23:03;100777.94;;;10.14;48.20
67987;BME280;54767;53.800;15.956;2023-05-12T00:25:31;100778.08;;;10.12;48.25
67987;BME280;54767;53.800;15.956;2023-05-12T00:28:00;100774.02;;;10.09;48.17
67987;BME280;54767;53.800;15.956;2023-05-12T00:30:28;100773.30;;;10.08;48.32
67987;BME280;54767;53.800;15.956;2023-05-12T00:32:56;100775.89;;;10.05;48.45
67987;BME280;54767;53.800;15.956;2023-05-12T00:35:26;100775.34;;;10.04;48.42
67987;BME280;54767;53.800;15.956;2023-05-12T00:37:54;100773.02;;;10.00;48.62
67987;BME280;54767;53.800;15.956;2023-05-12T00:40:23;100779.45;;;9.97;48.67
67987;BME280;54767;53.800;15.956;2023-05-12T00:42:51;100778.52;;;9.92;48.74
67987;BME280;54767;53.800;15.956;2023-05-12T00:45:19;100782.67;;;9.89;48.97
67987;BME280;54767;53.800;15.956;2023-05-12T00:47:50;100784.21;;;9.87;49.02
67987;BME280;54767;53.800;15.956;2023-05-12T00:50:21;100785.23;;;9.85;48.70
67987;BME280;54767;53.800;15.956;2023-05-12T00:52:49;100786.08;;;9.82;48.98
67987;BME280;54767;53.800;15.956;2023-05-12T00:55:19;100785.01;;;9.80;49.12
67987;BME280;54767;53.800;15.956;2023-05-12T00:57:48;100784.60;;;9.77;49.09
67987;BME280;54767;53.800;15.956;2023-05-12T01:00:17;100783.70;;;9.75;49.21
67987;BME280;54767;53.800;15.956;2023-05-12T01:02:45;100782.29;;;9.73;49.18
67987;BME280;54767;53.800;15.956;2023-05-12T01:05:14;100786.81;;;9.72;49.43
67987;BME280;54767;53.800;15.956;2023-05-12T01:07:43;100782.95;;;9.71;49.27
67987;BME280;54767;53.800;15.956;2023-05-12T01:10:17;100782.95;;;9.71;49.28
67987;BME280;54767;53.800;15.956;2023-05-12T01:12:47;100792.40;;;9.72;49.32
67987;BME280;54767;53.800;15.956;2023-05-12T01:18:26;100786.61;;;9.70;49.28
67987;BME280;54767;53.800;15.956;2023-05-12T01:24:58;100789.36;;;9.68;48.92
67987;BME280;54767;53.800;15.956;2023-05-12T01:27:29;100790.05;;;9.68;49.07
67987;BME280;54767;53.800;15.956;2023-05-12T01:30:01;100789.34;;;9.66;48.83
67987;BME280;54767;53.800;15.956;2023-05-12T01:32:31;100791.95;;;9.66;49.28
67987;BME280;54767;53.800;15.956;2023-05-12T01:35:03;100792.98;;;9.64;49.54
67987;BME280;54767;53.800;15.956;2023-05-12T01:37:32;100793.48;;;9.62;49.35
67987;BME280;54767;53.800;15.956;2023-05-12T01:40:02;100791.88;;;9.61;49.23
67987;BME280;54767;53.800;15.956;2023-05-12T01:42:31;100793.24;;;9.58;48.89
67987;BME280;54767;53.800;15.956;2023-05-12T01:45:00;100797.92;;;9.55;49.04
67987;BME280;54767;53.800;15.956;2023-05-12T01:47:30;100795.44;;;9.54;49.35
67987;BME280;54767;53.800;15.956;2023-05-12T01:49:59;100796.64;;;9.51;49.40
67987;BME280;54767;53.800;15.956;2023-05-12T01:52:28;100800.77;;;9.48;49.77
67987;BME280;54767;53.800;15.956;2023-05-12T01:54:58;100795.87;;;9.46;49.54
67987;BME280;54767;53.800;15.956;2023-05-12T01:57:26;100799.52;;;9.45;49.59
67987;BME280;54767;53.800;15.956;2023-05-12T01:59:55;100801.23;;;9.44;49.79
67987;BME280;54767;53.800;15.956;2023-05-12T02:02:23;100802.09;;;9.42;50.14
67987;BME280;54767;53.800;15.956;2023-05-12T02:04:52;100805.38;;;9.41;50.19
67987;BME280;54767;53.800;15.956;2023-05-12T02:07:20;100809.70;;;9.38;50.09
67987;BME280;54767;53.800;15.956;2023-05-12T02:09:48;100808.80;;;9.36;50.03
67987;BME280;54767;53.800;15.956;2023-05-12T02:12:17;100810.34;;;9.35;50.24
67987;BME280;54767;53.800;15.956;2023-05-12T02:14:45;100809.27;;;9.33;50.39
67987;BME280;54767;53.800;15.956;2023-05-12T02:17:13;100811.51;;;9.30;50.25
67987;BME280;54767;53.800;15.956;2023-05-12T02:19:42;100810.96;;;9.28;50.43
67987;BME280;54767;53.800;15.956;2023-05-12T02:22:10;100808.48;;;9.27;50.43
67987;BME280;54767;53.800;15.956;2023-05-12T02:24:38;100813.36;;;9.26;50.53
67987;BME280;54767;53.800;15.956;2023-05-12T02:27:07;100815.10;;;9.26;50.52
67987;BME280;54767;53.800;15.956;2023-05-12T02:29:35;100817.18;;;9.25;50.68
67987;BME280;54767;53.800;15.956;2023-05-12T02:32:04;100812.45;;;9.24;50.83
67987;BME280;54767;53.800;15.956;2023-05-12T02:34:33;100819.06;;;9.23;51.03
67987;BME280;54767;53.800;15.956;2023-05-12T02:37:01;100817.32;;;9.22;51.05
67987;BME280;54767;53.800;15.956;2023-05-12T02:39:31;100817.30;;;9.22;51.16
67987;BME280;54767;53.800;15.956;2023-05-12T02:41:59;100816.06;;;9.21;51.16
67987;BME280;54767;53.800;15.956;2023-05-12T02:44:28;100815.69;;;9.19;51.32
67987;BME280;54767;53.800;15.956;2023-05-12T02:46:57;100820.38;;;9.18;51.27
67987;BME280;54767;53.800;15.956;2023-05-12T02:49:27;100819.98;;;9.16;51.32
67987;BME280;54767;53.800;15.956;2023-05-12T02:51:56;100820.13;;;9.13;51.27
67987;BME280;54767;53.800;15.956;2023-05-12T02:54:25;100821.33;;;9.12;51.46
67987;BME280;54767;53.800;15.956;2023-05-12T02:56:53;100818.34;;;9.11;51.46
67987;BME280;54767;53.800;15.956;2023-05-12T02:59:25;100821.11;;;9.10;51.38
67987;BME280;54767;53.800;15.956;2023-05-12T03:01:54;100823.20;;;9.10;51.55
67987;BME280;54767;53.800;15.956;2023-05-12T03:04:23;100821.80;;;9.09;51.53
67987;BME280;54767;53.800;15.956;2023-05-12T03:06:52;100818.48;;;9.09;51.64
67987;BME280;54767;53.800;15.956;2023-05-12T03:09:22;100818.47;;;9.08;51.90
67987;BME280;54767;53.800;15.956;2023-05-12T03:11:51;100815.83;;;9.08;51.71
67987;BME280;54767;53.800;15.956;2023-05-12T03:14:19;100817.55;;;9.06;51.96
67987;BME280;54767;53.800;15.956;2023-05-12T03:16:47;100817.54;;;9.04;51.98
67987;BME280;54767;53.800;15.956;2023-05-12T03:19:16;100817.16;;;9.04;51.91
67987;BME280;54767;53.800;15.956;2023-05-12T03:21:44;100821.86;;;9.03;52.16
67987;BME280;54767;53.800;15.956;2023-05-12T03:24:12;100820.09;;;9.02;52.14
67987;BME280;54767;53.800;15.956;2023-05-12T03:26:41;100823.06;;;9.02;52.21
67987;BME280;54767;53.800;15.956;2023-05-12T03:29:09;100819.21;;;9.01;52.30
67987;BME280;54767;53.800;15.956;2023-05-12T03:31:37;100825.15;;;9.01;52.40
67987;BME280;54767;53.800;15.956;2023-05-12T03:34:05;100828.81;;;9.01;52.29
67987;BME280;54767;53.800;15.956;2023-05-12T03:36:35;100830.55;;;9.00;52.44
67987;BME280;54767;53.800;15.956;2023-05-12T03:39:04;100833.88;;;9.01;52.43
67987;BME280;54767;53.800;15.956;2023-05-12T03:41:32;100829.84;;;9.00;52.77
67987;BME280;54767;53.800;15.956;2023-05-12T03:44:01;100834.55;;;9.00;52.75
67987;BME280;54767;53.800;15.956;2023-05-12T03:46:29;100839.30;;;9.01;53.05
67987;BME280;54767;53.800;15.956;2023-05-12T03:48:57;100839.68;;;9.04;53.07
67987;BME280;54767;53.800;15.956;2023-05-12T03:51:50;100837.84;;;9.08;53.10
67987;BME280;54767;53.800;15.956;2023-05-12T03:54:19;100836.70;;;9.12;53.27
67987;BME280;54767;53.800;15.956;2023-05-12T03:56:47;100838.38;;;9.19;53.33
67987;BME280;54767;53.800;15.956;2023-05-12T03:59:16;100840.08;;;9.26;53.31
67987;BME280;54767;53.800;15.956;2023-05-12T04:01:44;100843.00;;;9.34;53.19
67987;BME280;54767;53.800;15.956;2023-05-12T04:04:13;100846.27;;;9.40;52.91
67987;BME280;54767;53.800;15.956;2023-05-12T04:06:43;100844.80;;;9.47;52.92
67987;BME280;54767;53.800;15.956;2023-05-12T04:09:12;100845.64;;;9.56;52.90
67987;BME280;54767;53.800;15.956;2023-05-12T04:11:40;100854.35;;;9.65;52.86
67987;BME280;54767;53.800;15.956;2023-05-12T04:14:08;100852.05;;;9.75;52.69
67987;BME280;54767;53.800;15.956;2023-05-12T04:16:36;100852.05;;;9.86;52.59
67987;BME280;54767;53.800;15.956;2023-05-12T04:19:05;100856.92;;;9.98;52.36
67987;BME280;54767;53.800;15.956;2023-05-12T04:21:33;100857.64;;;10.11;52.32
67987;BME280;54767;53.800;15.956;2023-05-12T04:24:02;100856.27;;;10.26;52.33
67987;BME280;54767;53.800;15.956;2023-05-12T04:26:30;100857.17;;;10.40;51.96
67987;BME280;54767;53.800;15.956;2023-05-12T04:28:58;100861.39;;;10.55;51.68
67987;BME280;54767;53.800;15.956;2023-05-12T04:31:27;100863.35;;;10.73;51.54
67987;BME280;54767;53.800;15.956;2023-05-12T04:33:55;100861.44;;;10.91;51.42
67987;BME280;54767;53.800;15.956;2023-05-12T04:36:23;100861.58;;;11.05;50.88
67987;BME280;54767;53.800;15.956;2023-05-12T04:38:52;100866.34;;;11.24;50.88
67987;BME280;54767;53.800;15.956;2023-05-12T04:41:25;100867.52;;;11.40;50.52
67987;BME280;54767;53.800;15.956;2023-05-12T04:43:53;100866.48;;;11.63;50.30
67987;BME280;54767;53.800;15.956;2023-05-12T04:46:25;100864.87;;;11.80;49.75
67987;BME280;54767;53.800;15.956;2023-05-12T04:48:54;100865.85;;;11.91;49.38
67987;BME280;54767;53.800;15.956;2023-05-12T04:51:23;100870.81;;;12.00;49.15
67987;BME280;54767;53.800;15.956;2023-05-12T04:53:51;100870.03;;;12.16;49.12
67987;BME280;54767;53.800;15.956;2023-05-12T04:56:20;100874.52;;;12.34;48.90
67987;BME280;54767;53.800;15.956;2023-05-12T04:58:50;100876.02;;;12.54;48.73
67987;BME280;54767;53.800;15.956;2023-05-12T05:01:18;100875.71;;;12.69;48.35
67987;BME280;54767;53.800;15.956;2023-05-12T05:03:47;100880.34;;;12.86;48.31
67987;BME280;54767;53.800;15.956;2023-05-12T05:06:16;100877.40;;;13.02;48.01
67987;BME280;54767;53.800;15.956;2023-05-12T05:08:45;100875.67;;;13.16;47.82
67987;BME280;54767;53.800;15.956;2023-05-12T05:11:14;100879.23;;;13.30;47.65
67987;BME280;54767;53.800;15.956;2023-05-12T05:13:43;100877.31;;;13.48;47.26
67987;BME280;54767;53.800;15.956;2023-05-12T05:16:12;100874.15;;;13.64;47.14
67987;BME280;54767;53.800;15.956;2023-05-12T05:18:41;100877.11;;;13.85;46.85
67987;BME280;54767;53.800;15.956;2023-05-12T05:21:14;100881.13;;;14.04;46.60
67987;BME280;54767;53.800;15.956;2023-05-12T05:23:43;100879.16;;;14.22;46.48
67987;BME280;54767;53.800;15.956;2023-05-12T05:26:13;100881.91;;;14.40;46.05
67987;BME280;54767;53.800;15.956;2023-05-12T05:28:44;100881.01;;;14.50;45.83
67987;BME280;54767;53.800;15.956;2023-05-12T05:31:16;100888.04;;;14.66;45.59
67987;BME280;54767;53.800;15.956;2023-05-12T05:33:45;100887.27;;;14.79;45.31
67987;BME280;54767;53.800;15.956;2023-05-12T05:36:16;100893.15;;;14.97;45.22
67987;BME280;54767;53.800;15.956;2023-05-12T05:38:45;100888.69;;;15.08;44.86
67987;BME280;54767;53.800;15.956;2023-05-12T05:41:13;100891.08;;;15.22;44.65
67987;BME280;54767;53.800;15.956;2023-05-12T05:43:42;100891.45;;;15.41;44.52
67987;BME280;54767;53.800;15.956;2023-05-12T05:46:11;100896.10;;;15.58;44.19
67987;BME280;54767;53.800;15.956;2023-05-12T05:48:41;100889.64;;;15.74;44.12
67987;BME280;54767;53.800;15.956;2023-05-12T05:51:10;100893.46;;;15.82;43.95
67987;BME280;54767;53.800;15.956;2023-05-12T05:53:38;100897.02;;;15.96;43.71
67987;BME280;54767;53.800;15.956;2023-05-12T05:56:09;100899.41;;;16.06;43.26
67987;BME280;54767;53.800;15.956;2023-05-12T05:58:38;100902.02;;;16.10;43.10
67987;BME280;54767;53.800;15.956;2023-05-12T06:01:07;100899.76;;;16.22;43.04
67987;BME280;54767;53.800;15.956;2023-05-12T06:03:35;100906.71;;;16.34;42.91
67987;BME280;54767;53.800;15.956;2023-05-12T06:06:04;100910.33;;;16.41;42.71
67987;BME280;54767;53.800;15.956;2023-05-12T06:08:32;100911.30;;;16.49;42.46
67987;BME280;54767;53.800;15.956;2023-05-12T06:11:00;100911.77;;;16.56;42.38
67987;BME280;54767;53.800;15.956;2023-05-12T06:13:29;100911.05;;;16.56;42.28
67987;BME280;54767;53.800;15.956;2023-05-12T06:15:57;100910.70;;;16.56;42.03
67987;BME280;54767;53.800;15.956;2023-05-12T06:18:25;100912.73;;;16.62;41.93
67987;BME280;54767;53.800;15.956;2023-05-12T06:20:54;100912.86;;;16.67;41.96
67987;BME280;54767;53.800;15.956;2023-05-12T06:23:22;100920.10;;;16.68;41.85
67987;BME280;54767;53.800;15.956;2023-05-12T06:25:51;100920.31;;;16.64;41.81
67987;BME280;54767;53.800;15.956;2023-05-12T06:28:19;100919.80;;;16.63;41.77
67987;BME280;54767;53.800;15.956;2023-05-12T06:30:47;100921.70;;;16.66;41.39
67987;BME280;54767;53.800;15.956;2023-05-12T06:33:15;100922.41;;;16.67;41.53
67987;BME280;54767;53.800;15.956;2023-05-12T06:35:44;100921.11;;;16.71;41.40
67987;BME280;54767;53.800;15.956;2023-05-12T06:38:12;100926.02;;;16.76;41.48
67987;BME280;54767;53.800;15.956;2023-05-12T06:53:02;100933.36;;;17.35;39.58
67987;BME280;54767;53.800;15.956;2023-05-12T06:55:34;100933.34;;;17.37;39.47
67987;BME280;54767;53.800;15.956;2023-05-12T06:58:04;100932.70;;;17.32;39.79
67987;BME280;54767;53.800;15.956;2023-05-12T07:00:34;100933.13;;;17.27;39.48
67987;BME280;54767;53.800;15.956;2023-05-12T07:03:03;100933.08;;;17.19;39.39
67987;BME280;54767;53.800;15.956;2023-05-12T07:05:31;100933.66;;;17.15;39.10
67987;BME280;54767;53.800;15.956;2023-05-12T07:07:59;100934.60;;;17.10;39.64
67987;BME280;54767;53.800;15.956;2023-05-12T07:10:28;100931.46;;;17.08;39.38
67987;BME280;54767;53.800;15.956;2023-05-12T07:12:56;100930.26;;;17.07;39.45
67987;BME280;54767;53.800;15.956;2023-05-12T07:15:25;100936.13;;;17.03;39.13
67987;BME280;54767;53.800;15.956;2023-05-12T07:17:53;100933.27;;;17.04;39.56
67987;BME280;54767;53.800;15.956;2023-05-12T07:20:23;100936.38;;;17.10;39.56
67987;BME280;54767;53.800;15.956;2023-05-12T07:22:52;100933.31;;;17.14;39.49
67987;BME280;54767;53.800;15.956;2023-05-12T07:25:20;100936.13;;;17.16;40.01
67987;BME280;54767;53.800;15.956;2023-05-12T07:27:48;100934.64;;;17.21;40.14
67987;BME280;54767;53.800;15.956;2023-05-12T07:30:16;100937.44;;;17.23;40.12
67987;BME280;54767;53.800;15.956;2023-05-12T07:32:43;100939.30;;;17.29;40.04
67987;BME280;54767;53.800;15.956;2023-05-12T07:35:10;100936.25;;;17.32;39.33
67987;BME280;54767;53.800;15.956;2023-05-12T07:37:38;100940.23;;;17.26;38.26
67987;BME280;54767;53.800;15.956;2023-05-12T07:40:06;100938.34;;;17.22;39.01
67987;BME280;54767;53.800;15.956;2023-05-12T07:42:33;100937.81;;;17.21;39.55
67987;BME280;54767;53.800;15.956;2023-05-12T07:45:00;100940.87;;;17.19;38.88
67987;BME280;54767;53.800;15.956;2023-05-12T07:47:27;100942.77;;;17.21;39.20
67987;BME280;54767;53.800;15.956;2023-05-12T07:49:54;100941.50;;;17.23;38.89
67987;BME280;54767;53.800;15.956;2023-05-12T07:52:21;100940.45;;;17.23;38.74
67987;BME280;54767;53.800;15.956;2023-05-12T07:54:48;100940.46;;;17.22;39.07
67987;BME280;54767;53.800;15.956;2023-05-12T07:57:15;100939.61;;;17.20;38.85
67987;BME280;54767;53.800;15.956;2023-05-12T07:59:42;100943.46;;;17.23;39.50
67987;BME280;54767;53.800;15.956;2023-05-12T08:02:09;100941.38;;;17.32;39.51
67987;BME280;54767;53.800;15.956;2023-05-12T08:04:36;100938.27;;;17.39;38.64
67987;BME280;54767;53.800;15.956;2023-05-12T08:07:03;100940.52;;;17.43;38.28
67987;BME280;54767;53.800;15.956;2023-05-12T08:09:30;100943.99;;;17.46;39.17
67987;BME280;54767;53.800;15.956;2023-05-12T08:11:57;100942.66;;;17.53;39.46
67987;BME280;54767;53.800;15.956;2023-05-12T08:14:24;100940.98;;;17.58;39.19
67987;BME280;54767;53.800;15.956;2023-05-12T08:16:51;100938.92;;;17.65;39.30
67987;BME280;54767;53.800;15.956;2023-05-12T08:19:18;100938.11;;;17.72;38.43
67987;BME280;54767;53.800;15.956;2023-05-12T08:21:45;100942.60;;;17.68;37.97
67987;BME280;54767;53.800;15.956;2023-05-12T08:24:12;100943.15;;;17.67;38.24
67987;BME280;54767;53.800;15.956;2023-05-12T08:26:39;100941.91;;;17.67;37.90
67987;BME280;54767;53.800;15.956;2023-05-12T08:29:06;100942.21;;;17.70;37.94
67987;BME280;54767;53.800;15.956;2023-05-12T08:31:34;100940.74;;;17.73;37.96
67987;BME280;54767;53.800;15.956;2023-05-12T08:34:01;100946.02;;;17.75;37.66
67987;BME280;54767;53.800;15.956;2023-05-12T08:36:38;100942.48;;;17.76;36.91
67987;BME280;54767;53.800;15.956;2023-05-12T08:39:06;100941.23;;;17.75;37.19
67987;BME280;54767;53.800;15.956;2023-05-12T08:41:44;100942.98;;;17.79;38.22
67987;BME280;54767;53.800;15.956;2023-05-12T08:44:14;100940.53;;;17.89;38.58
67987;BME280;54767;53.800;15.956;2023-05-12T08:46:42;100938.79;;;17.98;38.54
67987;BME280;54767;53.800;15.956;2023-05-12T08:49:11;100937.55;;;18.07;38.50
67987;BME280;54767;53.800;15.956;2023-05-12T08:51:43;100941.64;;;18.16;38.36
67987;BME280;54767;53.800;15.956;2023-05-12T08:54:21;100939.54;;;18.25;38.26
67987;BME280;54767;53.800;15.956;2023-05-12T08:56:50;100938.15;;;18.33;38.02
67987;BME280;54767;53.800;15.956;2023-05-12T08:59:22;100935.88;;;18.40;37.43
67987;BME280;54767;53.800;15.956;2023-05-12T09:01:49;100934.28;;;18.50;36.83
67987;BME280;54767;53.800;15.956;2023-05-12T09:04:17;100933.42;;;18.57;36.61
67987;BME280;54767;53.800;15.956;2023-05-12T09:06:44;100935.22;;;18.65;36.10
67987;BME280;54767;53.800;15.956;2023-05-12T09:09:12;100937.37;;;18.73;36.04
67987;BME280;54767;53.800;15.956;2023-05-12T09:11:42;100933.52;;;18.80;35.79
67987;BME280;54767;53.800;15.956;2023-05-12T09:14:24;100933.56;;;18.87;36.17
67987;BME280;54767;53.800;15.956;2023-05-12T09:16:59;100935.81;;;18.98;36.40
67987;BME280;54767;53.800;15.956;2023-05-12T09:19:27;100929.58;;;19.07;36.28
67987;BME280;54767;53.800;15.956;2023-05-12T09:21:55;100930.36;;;19.12;34.64
67987;BME280;54767;53.800;15.956;2023-05-12T09:24:33;100926.52;;;19.16;35.46
67987;BME280;54767;53.800;15.956;2023-05-12T09:27:01;100928.12;;;19.24;35.82
67987;BME280;54767;53.800;15.956;2023-05-12T09:29:29;100930.64;;;19.31;35.83
67987;BME280;54767;53.800;15.956;2023-05-12T09:32:00;100930.65;;;19.38;35.65
67987;BME280;54767;53.800;15.956;2023-05-12T09:34:33;100926.81;;;19.42;34.58
67987;BME280;54767;53.800;15.956;2023-05-12T09:37:06;100928.48;;;19.47;35.31
67987;BME280;54767;53.800;15.956;2023-05-12T09:39:34;100929.77;;;19.53;35.74
67987;BME280;54767;53.800;15.956;2023-05-12T09:42:10;100931.58;;;19.58;35.31
67987;BME280;54767;53.800;15.956;2023-05-12T09:44:38;100933.25;;;19.63;35.28
67987;BME280;54767;53.800;15.956;2023-05-12T09:47:07;100932.83;;;19.67;35.70
67987;BME280;54767;53.800;15.956;2023-05-12T09:49:34;100924.41;;;19.70;35.63
67987;BME280;54767;53.800;15.956;2023-05-12T09:52:02;100924.06;;;19.70;35.63
67987;BME280;54767;53.800;15.956;2023-05-12T09:54:31;100921.56;;;19.70;35.24
67987;BME280;54767;53.800;15.956;2023-05-12T09:57:01;100926.25;;;19.74;35.21
67987;BME280;54767;53.800;15.956;2023-05-12T09:59:33;100924.96;;;19.83;35.73
67987;BME280;54767;53.800;15.956;2023-05-12T10:02:03;100923.07;;;19.88;34.51
67987;BME280;54767;53.800;15.956;2023-05-12T10:04:44;100921.72;;;19.92;35.15
67987;BME280;54767;53.800;15.956;2023-05-12T10:07:13;100924.36;;;20.00;35.22
67987;BME280;54767;53.800;15.956;2023-05-12T10:09:43;100925.31;;;20.04;35.25
67987;BME280;54767;53.800;15.956;2023-05-12T10:12:11;100918.87;;;20.06;34.67
67987;BME280;54767;53.800;15.956;2023-05-12T10:14:39;100916.13;;;20.09;34.76
67987;BME280;54767;53.800;15.956;2023-05-12T10:17:07;100912.38;;;20.16;34.51
67987;BME280;54767;53.800;15.956;2023-05-12T10:19:35;100909.20;;;20.22;33.35
67987;BME280;54767;53.800;15.956;2023-05-12T10:22:04;100907.63;;;20.21;33.16
67987;BME280;54767;53.800;15.956;2023-05-12T10:24:34;100916.92;;;20.26;33.50
67987;BME280;54767;53.800;15.956;2023-05-12T10:27:06;100914.09;;;20.32;33.00
67987;BME280;54767;53.800;15.956;2023-05-12T10:29:34;100909.84;;;20.38;31.32
67987;BME280;54767;53.800;15.956;2023-05-12T10:32:03;100903.30;;;20.36;30.98
67987;BME280;54767;53.800;15.956;2023-05-12T10:34:35;100909.03;;;20.36;32.14
67987;BME280;54767;53.800;15.956;2023-05-12T10:37:08;100911.85;;;20.42;32.78
67987;BME280;54767;53.800;15.956;2023-05-12T10:39:37;100910.44;;;20.48;32.87
67987;BME280;54767;53.800;15.956;2023-05-12T10:42:15;100909.25;;;20.53;32.15
67987;BME280;54767;53.800;15.956;2023-05-12T10:44:49;100906.89;;;20.55;31.50
67987;BME280;54767;53.800;15.956;2023-05-12T10:47:16;100903.76;;;20.53;31.91
67987;BME280;54767;53.800;15.956;2023-05-12T10:49:44;100905.80;;;20.56;32.63
67987;BME280;54767;53.800;15.956;2023-05-12T10:52:11;100906.95;;;20.60;30.87
67987;BME280;54767;53.800;15.956;2023-05-12T10:54:42;100900.73;;;20.53;29.66
67987;BME280;54767;53.800;15.956;2023-05-12T10:57:15;100895.96;;;20.39;29.98
67987;BME280;54767;53.800;15.956;2023-05-12T10:59:55;100896.58;;;20.36;30.90
67987;BME280;54767;53.800;15.956;2023-05-12T11:02:26;100894.27;;;20.42;31.77
67987;BME280;54767;53.800;15.956;2023-05-12T11:07:29;100891.60;;;20.62;32.82
67987;BME280;54767;53.800;15.956;2023-05-12T11:10:01;100889.82;;;20.73;33.01
67987;BME280;54767;53.800;15.956;2023-05-12T11:12:31;100888.30;;;20.83;32.73
67987;BME280;54767;53.800;15.956;2023-05-12T11:15:01;100891.45;;;20.90;31.76
67987;BME280;54767;53.800;15.956;2023-05-12T11:17:28;100890.18;;;20.91;30.70
67987;BME280;54767;53.800;15.956;2023-05-12T11:19:56;100880.52;;;20.93;31.87
67987;BME280;54767;53.800;15.956;2023-05-12T11:22:23;100886.21;;;20.99;31.99
67987;BME280;54767;53.800;15.956;2023-05-12T11:24:51;100885.29;;;21.06;32.27
67987;BME280;54767;53.800;15.956;2023-05-12T11:27:20;100889.85;;;21.14;31.82
67987;BME280;54767;53.800;15.956;2023-05-12T11:29:58;100893.09;;;21.18;31.53
67987;BME280;54767;53.800;15.956;2023-05-12T11:32:25;100893.10;;;21.23;31.72
67987;BME280;54767;53.800;15.956;2023-05-12T11:34:53;100890.79;;;21.29;32.01
67987;BME280;54767;53.800;15.956;2023-05-12T11:37:21;100892.91;;;21.36;31.58
67987;BME280;54767;53.800;15.956;2023-05-12T11:39:47;100890.79;;;21.41;31.70
67987;BME280;54767;53.800;15.956;2023-05-12T11:42:14;100891.52;;;21.46;31.31
67987;BME280;54767;53.800;15.956;2023-05-12T11:44:47;100893.36;;;21.50;30.41
67987;BME280;54767;53.800;15.956;2023-05-12T11:47:15;100885.39;;;21.43;28.78
67987;BME280;54767;53.800;15.956;2023-05-12T11:49:47;100886.09;;;21.31;28.84
67987;BME280;54767;53.800;15.956;2023-05-12T11:52:15;100890.88;;;21.21;28.38
67987;BME280;54767;53.800;15.956;2023-05-12T11:54:56;100884.27;;;21.04;28.39
67987;BME280;54767;53.800;15.956;2023-05-12T12:00:00;100889.10;;;20.80;29.64
67987;BME280;54767;53.800;15.956;2023-05-12T12:02:28;100894.63;;;20.86;30.06
67987;BME280;54767;53.800;15.956;2023-05-12T12:04:55;100896.45;;;20.84;29.01
67987;BME280;54767;53.800;15.956;2023-05-12T12:07:33;100890.90;;;20.85;30.14
67987;BME280;54767;53.800;15.956;2023-05-12T12:10:15;100897.38;;;20.95;29.85
67987;BME280;54767;53.800;15.956;2023-05-12T12:12:43;100894.27;;;20.97;29.23
67987;BME280;54767;53.800;15.956;2023-05-12T12:15:11;100901.11;;;21.01;29.69
67987;BME280;54767;53.800;15.956;2023-05-12T12:17:39;100901.32;;;21.11;30.26
67987;BME280;54767;53.800;15.956;2023-05-12T12:20:07;100900.82;;;21.16;28.95
67987;BME280;54767;53.800;15.956;2023-05-12T12:22:34;100898.52;;;21.22;29.71
67987;BME280;54767;53.800;15.956;2023-05-12T12:25:02;100894.91;;;21.29;29.31
67987;BME280;54767;53.800;15.956;2023-05-12T12:27:29;100888.20;;;21.27;28.46
67987;BME280;54767;53.800;15.956;2023-05-12T12:29:56;100891.34;;;21.22;29.34
67987;BME280;54767;53.800;15.956;2023-05-12T12:32:24;100897.72;;;21.18;28.85
67987;BME280;54767;53.800;15.956;2023-05-12T12:34:51;100898.81;;;21.17;29.42
67987;BME280;54767;53.800;15.956;2023-05-12T12:37:19;100892.71;;;21.25;30.08
67987;BME280;54767;53.800;15.956;2023-05-12T12:39:53;100890.59;;;21.36;30.17
67987;BME280;54767;53.800;15.956;2023-05-12T12:42:20;100887.50;;;21.44;30.15
67987;BME280;54767;53.800;15.956;2023-05-12T12:44:48;100885.03;;;21.37;29.63
67987;BME280;54767;53.800;15.956;2023-05-12T12:47:16;100884.23;;;21.28;29.85
67987;BME280;54767;53.800;15.956;2023-05-12T12:49:44;100892.13;;;21.21;29.72
67987;BME280;54767;53.800;15.956;2023-05-12T12:52:10;100888.19;;;21.21;30.29
67987;BME280;54767;53.800;15.956;2023-05-12T12:54:38;100886.39;;;21.22;29.64
67987;BME280;54767;53.800;15.956;2023-05-12T12:57:05;100885.58;;;21.14;29.72
67987;BME280;54767;53.800;15.956;2023-05-12T12:59:32;100884.95;;;21.11;30.60
67987;BME280;54767;53.800;15.956;2023-05-12T13:01:59;100886.31;;;21.18;30.33
67987;BME280;54767;53.800;15.956;2023-05-12T13:04:27;100876.73;;;21.28;30.28
67987;BME280;54767;53.800;15.956;2023-05-12T13:06:54;100876.58;;;21.40;30.72
67987;BME280;54767;53.800;15.956;2023-05-12T13:09:21;100882.23;;;21.52;30.79
67987;BME280;54767;53.800;15.956;2023-05-12T13:11:49;100876.05;;;21.56;30.58
67987;BME280;54767;53.800;15.956;2023-05-12T13:14:16;100877.29;;;21.51;29.90
67987;BME280;54767;53.800;15.956;2023-05-12T13:16:42;100875.96;;;21.37;29.18